Time;durP1;ratioP1;P1;durP2;ratioP2;P2;SDS_P1;SDS_P2;PMS_P1;PMS_P2;Temp;Humidity;BMP_temperature;BMP_pressure;BME280_temperature;BME280_humidity;BME280_pressure;Samples;Min_cycle;Max_cycle;Signal;HPM_P1;HPM_P2
2023/10/10 00:02:18;;;;;;;13.68;10.27;;;15.50;99.90;;;;;;4806700;29;20047;-81
2023/10/10 00:05:11;;;;;;;16.27;10.90;;;15.40;99.90;;;;;;4729981;30;20051;-81
2023/10/10 00:07:46;;;;;;;17.50;11.85;;;15.50;99.90;;;;;;4784138;29;20481;-81
2023/10/10 00:24:38;;;;;;;14.05;11.93;;;15.50;99.90;;;;;;4786989;29;20057;-81
2023/10/10 00:27:47;;;;;;;15.77;12.75;;;15.50;99.90;;;;;;4781624;29;20066;-81
2023/10/10 00:31:03;;;;;;;12.15;10.40;;;15.50;99.90;;;;;;4822284;29;20409;-81
2023/10/10 00:37:25;;;;;;;15.20;12.82;;;15.50;99.90;;;;;;4786029;29;20155;-81
2023/10/10 00:43:34;;;;;;;12.80;11.35;;;15.50;99.90;;;;;;4802513;29;20077;-81
2023/10/10 00:46:04;;;;;;;12.93;10.70;;;15.50;99.90;;;;;;4792403;29;20126;-82
2023/10/10 00:48:32;;;;;;;14.35;12.60;;;15.40;99.90;;;;;;4791566;29;20046;-81
2023/10/10 00:51:11;;;;;;;12.90;11.60;;;15.50;99.90;;;;;;4791462;29;20570;-82
2023/10/10 00:53:55;;;;;;;12.68;11.32;;;15.50;99.90;;;;;;4802159;29;20057;-82
2023/10/10 00:56:29;;;;;;;15.55;13.63;;;15.50;99.90;;;;;;4798151;29;20054;-81
2023/10/10 00:59:06;;;;;;;16.55;10.50;;;15.50;99.90;;;;;;4792422;29;20057;-81
2023/10/10 01:02:03;;;;;;;17.77;13.05;;;15.50;99.90;;;;;;4792836;29;20410;-81
2023/10/10 01:04:35;;;;;;;17.23;13.65;;;15.50;99.90;;;;;;4778244;29;20084;-81
2023/10/10 01:07:07;;;;;;;18.25;13.18;;;15.50;99.90;;;;;;4792184;29;20038;-81
2023/10/10 01:09:57;;;;;;;15.98;11.63;;;15.50;99.90;;;;;;4791068;29;20072;-81
2023/10/10 01:12:43;;;;;;;15.98;13.15;;;15.40;99.90;;;;;;4807620;29;20101;-81
2023/10/10 01:15:43;;;;;;;17.20;12.40;;;15.40;99.90;;;;;;4809552;29;20034;-81
2023/10/10 01:21:31;;;;;;;17.60;11.52;;;15.40;99.90;;;;;;4809730;29;20129;-81
2023/10/10 01:24:06;;;;;;;17.05;10.82;;;15.30;99.90;;;;;;4791801;29;20059;-81
2023/10/10 01:26:38;;;;;;;12.82;10.43;;;15.30;99.90;;;;;;4824138;29;20060;-81
2023/10/10 01:29:40;;;;;;;15.98;10.50;;;15.30;99.90;;;;;;4797617;29;20125;-81
2023/10/10 01:32:38;;;;;;;11.02;9.13;;;15.20;99.90;;;;;;4773876;29;20057;-81
2023/10/10 01:35:23;;;;;;;12.82;10.43;;;15.20;99.90;;;;;;4824384;29;20046;-81
2023/10/10 01:38:22;;;;;;;9.82;8.13;;;15.10;99.90;;;;;;4807583;29;20054;-82
2023/10/10 01:44:48;;;;;;;16.92;13.00;;;15.00;99.90;;;;;;4776252;29;20095;-81
2023/10/10 01:47:25;;;;;;;13.82;9.80;;;14.90;99.90;;;;;;4804463;29;20521;-81
2023/10/10 01:49:52;;;;;;;13.80;12.23;;;14.80;99.90;;;;;;4794194;29;20050;-82
2023/10/10 01:52:27;;;;;;;14.77;11.52;;;14.80;99.90;;;;;;4792615;29;20397;-82
2023/10/10 01:55:00;;;;;;;11.75;10.57;;;14.80;99.90;;;;;;4795719;29;20121;-81
2023/10/10 01:57:34;;;;;;;15.10;11.98;;;14.80;99.90;;;;;;4794877;29;20091;-81
2023/10/10 02:00:20;;;;;;;12.70;9.63;;;14.60;99.90;;;;;;4805313;29;20049;-81
2023/10/10 02:03:04;;;;;;;19.35;12.57;;;14.60;99.90;;;;;;4824710;29;20061;-81
2023/10/10 02:15:51;;;;;;;22.88;15.68;;;14.60;99.90;;;;;;4788857;29;20411;-81
2023/10/10 02:19:15;;;;;;;26.83;20.92;;;14.60;99.90;;;;;;4756149;29;20052;-81
2023/10/10 02:23:00;;;;;;;23.08;18.30;;;14.60;99.90;;;;;;4821569;29;20083;-81
2023/10/10 02:25:57;;;;;;;36.90;25.17;;;14.60;99.90;;;;;;4777851;29;20059;-81
2023/10/10 02:45:47;;;;;;;36.97;26.25;;;14.80;99.90;;;;;;4813313;29;20416;-82
2023/10/10 02:51:57;;;;;;;54.00;31.45;;;14.90;99.90;;;;;;4798179;29;20049;-82
2023/10/10 02:55:07;;;;;;;;;;;;;;;;;;;;;
2023/10/10 02:58:20;;;;;;;34.70;25.88;;;14.90;99.90;;;;;;4810547;29;20062;-82
2023/10/10 03:18:27;;;;;;;32.53;24.73;;;15.00;99.90;;;;;;4814366;29;20054;-82
2023/10/10 03:22:17;;;;;;;37.63;27.13;;;14.90;99.90;;;;;;4821951;29;20050;-82
2023/10/10 03:31:31;;;;;;;36.97;28.88;;;14.90;99.90;;;;;;4827350;29;20087;-81
2023/10/10 03:34:25;;;;;;;37.17;27.13;;;14.90;99.90;;;;;;4794193;29;20076;-82
2023/10/10 05:23:47;;;;;;;67.40;41.42;;;14.40;99.90;;;;;;4805931;29;20047;-82
2023/10/10 05:26:14;;;;;;;54.00;36.65;;;14.40;99.90;;;;;;4797463;29;20071;-82
2023/10/10 05:28:40;;;;;;;50.92;36.75;;;14.40;99.90;;;;;;4786614;29;20051;-82
2023/10/10 05:31:09;;;;;;;50.13;35.78;;;14.30;99.90;;;;;;4804839;29;20483;-82
2023/10/10 05:33:36;;;;;;;58.20;38.03;;;14.30;99.90;;;;;;4822633;29;20082;-82
2023/10/10 05:36:08;;;;;;;43.58;35.13;;;14.30;99.90;;;;;;4803165;29;20128;-82
2023/10/10 05:38:39;;;;;;;52.17;38.00;;;14.30;99.90;;;;;;4802114;29;20046;-82
2023/10/10 05:41:06;;;;;;;49.50;36.55;;;14.30;99.90;;;;;;4809716;29;20041;-82
2023/10/10 05:43:35;;;;;;;51.58;37.47;;;14.30;99.90;;;;;;4802199;29;20038;-82
2023/10/10 05:46:03;;;;;;;63.08;41.78;;;14.30;99.90;;;;;;4804182;29;20049;-82
2023/10/10 05:48:31;;;;;;;53.20;39.85;;;14.40;99.90;;;;;;4809609;29;20042;-82
2023/10/10 05:50:57;;;;;;;71.72;45.67;;;14.40;99.90;;;;;;4809403;29;20048;-81
2023/10/10 05:53:24;;;;;;;58.78;43.13;;;14.30;99.90;;;;;;4803582;29;20049;-82
2023/10/10 05:55:53;;;;;;;53.80;40.10;;;14.30;99.90;;;;;;4803323;29;20421;-82
2023/10/10 05:58:22;;;;;;;79.20;44.15;;;14.30;99.90;;;;;;4809508;29;20134;-82
2023/10/10 06:00:48;;;;;;;60.30;43.97;;;14.20;99.90;;;;;;4820173;29;20045;-82
2023/10/10 06:03:16;;;;;;;58.53;43.85;;;14.30;99.90;;;;;;4820003;29;20046;-82
2023/10/10 06:05:49;;;;;;;57.60;45.22;;;14.20;99.90;;;;;;4809701;29;20046;-82
2023/10/10 06:08:15;;;;;;;71.00;48.17;;;14.20;99.90;;;;;;4809228;29;20042;-82
2023/10/10 06:10:41;;;;;;;61.33;43.58;;;14.10;99.90;;;;;;4813173;29;20049;-82
2023/10/10 06:13:07;;;;;;;58.85;44.83;;;14.10;99.90;;;;;;4814176;29;20417;-82
2023/10/10 06:15:33;;;;;;;61.75;45.55;;;14.10;99.90;;;;;;4809737;29;20042;-82
2023/10/10 06:18:08;;;;;;;129.07;56.75;;;14.20;99.90;;;;;;4809232;29;20042;-82
2023/10/10 06:20:40;;;;;;;74.72;47.97;;;14.10;99.90;;;;;;4804227;29;20099;-82
2023/10/10 06:23:11;;;;;;;67.53;48.35;;;14.20;99.90;;;;;;4827763;29;20056;-83
2023/10/10 06:25:37;;;;;;;112.28;55.22;;;14.20;99.90;;;;;;4827614;29;20068;-82
2023/10/10 06:28:06;;;;;;;65.95;48.65;;;14.20;99.90;;;;;;4807475;29;20114;-82
2023/10/10 06:30:37;;;;;;;76.22;48.28;;;14.20;99.90;;;;;;4821430;29;20042;-81
2023/10/10 06:33:18;;;;;;;136.00;58.42;;;14.20;99.90;;;;;;4825875;29;20050;-82
2023/10/10 06:35:52;;;;;;;97.78;53.53;;;14.30;99.90;;;;;;4801733;29;20046;-82
2023/10/10 06:38:59;;;;;;;73.10;49.35;;;14.30;99.90;;;;;;4796519;29;20034;-82
2023/10/10 06:41:35;;;;;;;105.47;54.67;;;14.40;99.90;;;;;;4820211;29;20050;-82
2023/10/10 06:44:17;;;;;;;87.82;53.03;;;14.40;99.90;;;;;;4805625;29;20379;-82
2023/10/10 06:46:49;;;;;;;80.45;52.42;;;14.50;99.90;;;;;;4804493;29;20062;-82
2023/10/10 06:49:15;;;;;;;74.78;51.50;;;14.50;99.90;;;;;;4804748;29;20049;-82
2023/10/10 06:51:40;;;;;;;99.25;58.95;;;14.60;99.90;;;;;;4807447;29;20083;-83
2023/10/10 06:54:27;;;;;;;144.38;67.60;;;14.60;99.90;;;;;;4799783;29;20136;-82
2023/10/10 06:57:17;;;;;;;86.55;56.90;;;14.70;99.90;;;;;;4810045;29;20134;-82
2023/10/10 06:59:48;;;;;;;136.18;67.63;;;14.80;99.90;;;;;;4816648;29;20110;-82
2023/10/10 07:02:39;;;;;;;90.43;59.90;;;14.90;99.90;;;;;;4808559;29;20042;-82
2023/10/10 07:05:05;;;;;;;99.63;62.45;;;15.00;99.90;;;;;;4790703;29;20103;-83
2023/10/10 07:07:31;;;;;;;92.18;60.78;;;15.20;99.90;;;;;;4806795;29;20050;-83
2023/10/10 07:09:59;;;;;;;108.75;66.47;;;15.20;99.90;;;;;;4810519;29;20083;-82
2023/10/10 07:12:49;;;;;;;177.82;79.07;;;15.30;99.90;;;;;;4807046;29;20050;-82
2023/10/10 07:15:21;;;;;;;121.72;68.72;;;15.30;99.90;;;;;;4793174;29;20038;-82
2023/10/10 07:18:17;;;;;;;135.77;74.40;;;15.30;99.90;;;;;;4816479;29;20064;-81
2023/10/10 07:24:14;;;;;;;175.18;81.55;;;15.40;99.90;;;;;;4806893;29;20054;-83
2023/10/10 07:26:43;;;;;;;140.88;76.55;;;15.40;99.90;;;;;;4813137;29;20081;-83
2023/10/10 07:29:30;;;;;;;166.98;81.32;;;15.50;99.90;;;;;;4804407;29;20498;-82
2023/10/10 07:33:00;;;;;;;131.40;74.40;;;15.50;99.90;;;;;;4802520;29;20538;-82
2023/10/10 07:35:27;;;;;;;165.63;82.25;;;15.50;99.90;;;;;;4802992;29;20126;-82
2023/10/10 07:37:53;;;;;;;138.13;75.10;;;15.50;99.90;;;;;;4793524;29;20050;-82
2023/10/10 07:42:50;;;;;;;137.38;78.10;;;15.60;99.90;;;;;;4809489;29;20045;-82
2023/10/10 07:45:26;;;;;;;119.10;73.68;;;15.70;99.90;;;;;;4807071;29;20050;-81
2023/10/10 07:50:34;;;;;;;125.35;74.22;;;15.70;99.90;;;;;;4808606;29;20500;-82
2023/10/10 07:53:05;;;;;;;124.07;76.30;;;15.70;99.90;;;;;;4813014;29;20057;-82
2023/10/10 07:55:52;;;;;;;105.95;69.82;;;15.80;99.90;;;;;;4815874;29;20057;-82
2023/10/10 07:58:19;;;;;;;117.95;74.80;;;15.80;99.90;;;;;;4823598;29;20098;-82
2023/10/10 08:00:45;;;;;;;115.78;72.72;;;15.90;99.90;;;;;;4826368;29;20049;-82
2023/10/10 08:03:19;;;;;;;114.35;72.63;;;16.00;99.90;;;;;;4816513;29;20414;-82
2023/10/10 08:05:48;;;;;;;105.13;70.93;;;16.10;99.90;;;;;;4825503;29;20046;-80
2023/10/10 08:08:15;;;;;;;96.55;67.88;;;16.10;99.90;;;;;;4833838;29;20061;-81
2023/10/10 08:10:44;;;;;;;92.15;66.60;;;16.20;99.90;;;;;;4807637;29;20046;-87
2023/10/10 08:13:14;;;;;;;97.68;67.45;;;16.30;99.90;;;;;;4816594;29;20065;-85
2023/10/10 08:15:51;;;;;;;86.03;62.67;;;16.40;99.90;;;;;;4799633;29;20556;-81
2023/10/10 08:18:40;;;;;;;93.88;67.10;;;16.40;99.90;;;;;;4807691;29;20089;-83
2023/10/10 08:23:30;;;;;;;78.10;63.00;;;16.60;99.90;;;;;;4834369;29;20095;-83
2023/10/10 08:25:56;;;;;;;76.28;60.22;;;16.60;99.90;;;;;;4792006;29;20442;-82
2023/10/10 08:39:24;;;;;;;65.38;54.85;;;16.90;99.90;;;;;;5500339;23;20054;-77
2023/10/10 08:41:52;;;;;;;73.20;56.58;;;17.00;99.90;;;;;;4810755;29;20041;-80
2023/10/10 08:44:19;;;;;;;66.85;56.28;;;17.10;99.90;;;;;;4825026;29;20053;-77
2023/10/10 08:46:46;;;;;;;59.45;51.55;;;17.20;99.90;;;;;;4824891;29;20042;-77
2023/10/10 08:49:16;;;;;;;68.68;57.22;;;17.30;99.90;;;;;;4800852;29;20449;-78
2023/10/10 08:51:43;;;;;;;63.05;53.55;;;17.40;99.90;;;;;;4790155;29;20043;-76
2023/10/10 08:54:10;;;;;;;60.25;52.33;;;17.50;99.90;;;;;;4816933;29;20560;-76
2023/10/10 08:56:39;;;;;;;58.28;51.65;;;17.70;99.90;;;;;;4825025;29;20137;-76
2023/10/10 08:59:08;;;;;;;58.97;51.25;;;17.70;99.90;;;;;;4825097;29;20074;-77
2023/10/10 09:01:35;;;;;;;59.75;53.20;;;17.70;99.90;;;;;;4814927;29;20085;-76
2023/10/10 09:04:03;;;;;;;54.90;49.00;;;17.70;99.90;;;;;;4804718;29;20038;-77
2023/10/10 09:06:43;;;;;;;54.85;48.10;;;17.70;99.90;;;;;;4825161;29;20429;-76
2023/10/10 09:09:33;;;;;;;60.25;51.78;;;17.80;99.90;;;;;;4809688;29;20485;-76
2023/10/10 09:11:56;;;;;;;55.72;49.80;;;17.80;99.90;;;;;;4824834;29;20050;-76
2023/10/10 09:14:42;;;;;;;61.88;51.88;;;17.90;99.90;;;;;;4796909;29;20042;-76
2023/10/10 09:17:28;;;;;;;58.20;50.60;;;18.00;99.90;;;;;;4805950;29;20077;-77
2023/10/10 09:19:56;;;;;;;56.70;49.65;;;18.20;99.90;;;;;;4805263;29;20046;-76
2023/10/10 09:22:52;;;;;;;51.78;45.65;;;18.20;99.90;;;;;;4808946;29;20133;-76
2023/10/10 09:25:27;;;;;;;52.63;46.53;;;18.40;99.90;;;;;;4787886;29;20090;-77
2023/10/10 09:27:59;;;;;;;52.25;46.58;;;18.50;99.90;;;;;;4818639;29;20053;-77
2023/10/10 09:30:40;;;;;;;50.58;45.20;;;18.50;99.90;;;;;;4809489;29;20048;-77
2023/10/10 09:36:15;;;;;;;50.28;44.00;;;18.60;99.90;;;;;;4808074;29;20047;-77
2023/10/10 09:38:45;;;;;;;49.60;44.28;;;18.70;99.90;;;;;;4822943;29;20046;-76
2023/10/10 09:49:40;;;;;;;49.90;44.60;;;18.90;99.90;;;;;;4807483;29;20070;-77
2023/10/10 09:57:58;;;;;;;50.72;45.17;;;19.00;99.90;;;;;;4816533;29;20617;-77
2023/10/10 10:03:31;;;;;;;42.97;38.42;;;19.10;99.90;;;;;;4809139;29;20056;-78
2023/10/10 10:06:19;;;;;;;42.33;38.10;;;19.30;99.90;;;;;;4802134;29;20046;-77
2023/10/10 10:09:34;;;;;;;44.05;39.63;;;19.40;99.90;;;;;;4819739;29;20046;-77
2023/10/10 10:12:19;;;;;;;43.42;38.83;;;19.60;99.90;;;;;;4820447;29;20095;-77
2023/10/10 10:15:22;;;;;;;42.42;38.15;;;19.60;99.90;;;;;;4804169;29;20509;-77
2023/10/10 10:18:13;;;;;;;42.75;38.25;;;19.70;99.90;;;;;;4810262;29;20039;-76
2023/10/10 10:23:27;;;;;;;43.42;38.92;;;20.00;99.90;;;;;;4812928;29;20046;-76
2023/10/10 10:25:54;;;;;;;39.78;35.47;;;20.30;99.90;;;;;;4813154;29;20497;-77
2023/10/10 10:28:28;;;;;;;40.67;36.28;;;20.50;99.90;;;;;;4808252;29;20451;-77
2023/10/10 10:30:54;;;;;;;38.85;34.78;;;20.80;99.90;;;;;;4807453;29;20042;-77
2023/10/10 10:33:22;;;;;;;40.53;36.28;;;21.00;99.90;;;;;;4816604;29;20053;-77
2023/10/10 10:36:06;;;;;;;41.17;37.08;;;21.20;99.90;;;;;;4808984;29;20050;-77
2023/10/10 10:38:33;;;;;;;40.35;36.22;;;21.30;99.90;;;;;;4823773;29;20049;-77
2023/10/10 10:41:16;;;;;;;39.75;33.78;;;21.50;99.90;;;;;;4812922;29;20493;-77
2023/10/10 10:43:51;;;;;;;41.27;36.77;;;21.60;99.90;;;;;;4824084;29;20513;-77
2023/10/10 10:46:27;;;;;;;38.70;34.80;;;21.80;99.90;;;;;;4808105;29;20374;-76
2023/10/10 10:49:05;;;;;;;37.70;33.72;;;21.70;99.90;;;;;;4798405;29;20046;-76
2023/10/10 10:51:44;;;;;;;37.17;33.25;;;21.80;99.90;;;;;;4807507;29;20042;-77
2023/10/10 10:54:35;;;;;;;37.47;33.63;;;21.90;99.90;;;;;;4809070;29;20331;-77
2023/10/10 10:57:01;;;;;;;37.78;33.80;;;22.00;99.90;;;;;;4815172;29;20421;-77
2023/10/10 10:59:35;;;;;;;35.72;32.10;;;22.10;99.90;;;;;;4797574;29;20042;-77
2023/10/10 11:02:05;;;;;;;34.95;31.30;;;22.10;99.90;;;;;;4811996;29;20056;-75
2023/10/10 11:07:03;;;;;;;34.90;31.30;;;22.40;99.90;;;;;;4809942;29;20042;-76
2023/10/10 11:09:30;;;;;;;34.25;30.55;;;22.50;99.90;;;;;;4805693;29;20054;-76
2023/10/10 11:12:03;;;;;;;35.72;32.20;;;22.50;99.90;;;;;;4809306;29;20038;-76
2023/10/10 11:14:45;;;;;;;37.33;33.67;;;22.60;99.90;;;;;;4792326;29;20395;-76
2023/10/10 11:17:18;;;;;;;38.38;34.60;;;22.60;99.90;;;;;;4819366;29;20042;-76
2023/10/10 11:19:46;;;;;;;36.60;32.80;;;22.70;99.90;;;;;;4815320;29;20075;-76
2023/10/10 11:22:38;;;;;;;35.72;32.15;;;22.70;99.90;;;;;;4801366;29;20046;-77
2023/10/10 11:25:04;;;;;;;37.03;33.33;;;22.80;99.90;;;;;;4798417;29;20050;-76
2023/10/10 11:27:43;;;;;;;35.92;32.22;;;23.00;99.90;;;;;;4807042;29;20042;-76
2023/10/10 11:30:11;;;;;;;34.95;30.63;;;23.00;99.90;;;;;;4818721;29;20038;-76
2023/10/10 11:32:47;;;;;;;35.78;32.00;;;23.00;99.90;;;;;;4803760;29;20060;-76
2023/10/10 11:35:23;;;;;;;34.15;30.85;;;23.10;99.90;;;;;;4840140;29;20124;-76
2023/10/10 11:37:59;;;;;;;31.90;27.75;;;23.20;99.90;;;;;;4815784;29;20050;-76
2023/10/10 11:40:33;;;;;;;28.30;25.42;;;23.30;99.90;;;;;;4807933;29;20490;-76
2023/10/10 11:43:03;;;;;;;25.38;22.65;;;23.30;99.90;;;;;;4808115;29;20054;-76
2023/10/10 11:45:30;;;;;;;22.40;20.25;;;23.30;99.90;;;;;;4799805;29;20041;-76
2023/10/10 11:48:10;;;;;;;23.88;21.38;;;23.30;99.90;;;;;;4816908;29;20049;-76
2023/10/10 11:50:43;;;;;;;21.63;18.98;;;23.60;99.90;;;;;;4817834;29;20042;-76
2023/10/10 11:53:12;;;;;;;;;;;24.00;99.90;;;;;;4826846;29;20485;-76
2023/10/10 11:55:42;;;;;;;22.23;19.90;;;24.20;99.90;;;;;;4818372;29;19950;-76
2023/10/10 11:58:08;;;;;;;19.60;17.70;;;24.20;99.90;;;;;;4813796;29;20517;-76
2023/10/10 12:00:43;;;;;;;20.23;18.17;;;24.30;99.90;;;;;;4817645;29;20085;-76
2023/10/10 12:03:32;;;;;;;21.17;18.35;;;24.20;99.90;;;;;;4842249;29;20046;-76
2023/10/10 12:05:59;;;;;;;20.83;18.35;;;24.00;99.90;;;;;;4825802;29;20052;-77
2023/10/10 12:08:27;;;;;;;21.02;18.60;;;23.90;99.90;;;;;;4825999;29;20042;-76
2023/10/10 12:11:06;;;;;;;20.90;18.80;;;23.70;99.90;;;;;;4817040;29;20401;-76
2023/10/10 12:15:59;;;;;;;21.52;19.13;;;24.20;99.90;;;;;;4825790;29;20132;-76
2023/10/10 12:18:31;;;;;;;23.60;19.48;;;24.70;99.90;;;;;;4825662;29;20133;-76
2023/10/10 12:21:04;;;;;;;20.40;18.33;;;24.90;99.90;;;;;;4842144;29;20049;-76
2023/10/10 12:23:31;;;;;;;21.52;19.42;;;24.90;99.90;;;;;;4799403;29;20046;-76
2023/10/10 12:25:59;;;;;;;20.58;17.55;;;24.90;99.90;;;;;;4804550;29;20081;-77
2023/10/10 12:28:25;;;;;;;19.67;17.60;;;24.90;99.90;;;;;;4815698;29;20049;-76
2023/10/10 12:30:52;;;;;;;21.30;19.13;;;24.90;99.90;;;;;;4818108;29;20405;-76
2023/10/10 12:33:19;;;;;;;22.35;19.95;;;24.90;99.90;;;;;;4810195;29;20056;-76
2023/10/10 12:35:48;;;;;;;22.92;20.45;;;24.70;99.90;;;;;;4825497;29;20132;-76
2023/10/10 12:38:20;;;;;;;21.60;19.33;;;24.40;99.90;;;;;;4825203;29;20070;-76
2023/10/10 12:40:56;;;;;;;22.25;19.50;;;24.20;99.90;;;;;;4825567;29;20434;-76
2023/10/10 12:43:25;;;;;;;22.65;20.23;;;24.10;99.90;;;;;;4816543;29;20576;-76
2023/10/10 12:45:54;;;;;;;23.58;21.23;;;24.10;99.90;;;;;;4817031;29;20050;-76
2023/10/10 12:48:20;;;;;;;22.00;19.75;;;23.90;99.90;;;;;;4814768;29;20550;-75
2023/10/10 12:50:47;;;;;;;22.77;20.17;;;23.70;99.90;;;;;;4825247;29;20046;-75
2023/10/10 12:53:19;;;;;;;25.77;23.27;;;23.50;99.90;;;;;;4825208;29;20056;-75
2023/10/10 12:55:48;;;;;;;22.73;20.30;;;23.20;99.90;;;;;;4825302;29;20053;-76
2023/10/10 12:58:20;;;;;;;23.70;21.20;;;23.20;99.90;;;;;;4820643;29;20417;-76
2023/10/10 13:00:53;;;;;;;24.95;21.75;;;23.20;99.90;;;;;;4826249;29;20050;-76
2023/10/10 13:03:37;;;;;;;26.77;24.02;;;23.20;99.90;;;;;;4819571;29;20053;-76
2023/10/10 13:06:04;;;;;;;24.75;22.33;;;23.00;99.90;;;;;;4814642;29;20041;-76
2023/10/10 13:08:47;;;;;;;25.77;23.00;;;23.00;99.90;;;;;;4814704;29;20084;-76
2023/10/10 13:11:16;;;;;;;26.58;22.05;;;22.80;99.90;;;;;;4802957;29;20486;-76
2023/10/10 13:13:45;;;;;;;24.55;21.73;;;22.60;99.90;;;;;;4803083;29;20054;-76
2023/10/10 13:19:06;;;;;;;24.60;21.85;;;22.40;99.90;;;;;;4806233;29;20050;-76
2023/10/10 13:21:35;;;;;;;25.08;22.48;;;22.30;99.90;;;;;;4805935;29;20167;-76
2023/10/10 13:24:00;;;;;;;29.73;24.20;;;22.20;99.90;;;;;;4804504;29;20133;-76
2023/10/10 13:26:27;;;;;;;26.20;22.85;;;22.10;99.90;;;;;;4811846;29;20145;-76
2023/10/10 13:28:53;;;;;;;26.50;23.67;;;22.00;99.90;;;;;;4810860;29;20054;-76
2023/10/10 13:31:19;;;;;;;26.15;23.35;;;22.00;99.90;;;;;;4801547;29;20111;-76
2023/10/10 13:33:45;;;;;;;25.20;21.90;;;21.80;99.90;;;;;;4801805;29;20046;-76
2023/10/10 13:36:14;;;;;;;26.55;23.80;;;21.80;99.90;;;;;;4805285;29;20050;-76
2023/10/10 13:38:47;;;;;;;25.02;22.45;;;21.60;99.90;;;;;;4808098;29;20073;-75
2023/10/10 13:41:16;;;;;;;27.33;23.25;;;21.40;99.90;;;;;;4808234;29;20537;-76
2023/10/10 13:43:50;;;;;;;25.83;23.13;;;21.40;99.90;;;;;;4806347;29;20072;-75
2023/10/10 13:46:18;;;;;;;27.30;24.25;;;21.30;99.90;;;;;;4813676;29;20043;-75
2023/10/10 13:48:44;;;;;;;26.83;23.80;;;21.20;99.90;;;;;;4804658;29;20526;-76
2023/10/10 13:51:10;;;;;;;27.42;24.23;;;21.20;99.90;;;;;;4809911;29;20391;-76
2023/10/10 13:53:39;;;;;;;24.15;21.73;;;21.20;99.90;;;;;;4809681;29;20056;-76
2023/10/10 13:56:05;;;;;;;24.77;22.23;;;21.10;99.90;;;;;;4809998;29;20042;-76
2023/10/10 13:58:30;;;;;;;23.63;21.35;;;21.10;99.90;;;;;;4790458;29;20098;-76
2023/10/10 14:01:13;;;;;;;22.55;19.95;;;21.10;99.90;;;;;;4807528;29;20054;-76
2023/10/10 14:03:46;;;;;;;22.40;20.08;;;21.10;99.90;;;;;;4812394;29;20129;-76
2023/10/10 14:06:20;;;;;;;23.23;20.75;;;21.00;99.90;;;;;;4809771;29;20105;-76
2023/10/10 14:08:48;;;;;;;22.48;20.13;;;21.00;99.90;;;;;;4792707;29;20047;-76
2023/10/10 14:11:21;;;;;;;23.08;20.42;;;21.00;99.90;;;;;;4800296;29;20490;-76
2023/10/10 14:13:48;;;;;;;24.13;19.73;;;21.00;99.90;;;;;;4809630;29;20054;-76
2023/10/10 14:16:14;;;;;;;23.73;20.65;;;21.00;99.90;;;;;;4816176;29;20064;-76
2023/10/10 14:18:43;;;;;;;21.50;18.77;;;21.00;99.90;;;;;;4791710;29;20046;-76
2023/10/10 14:21:10;;;;;;;20.48;18.27;;;21.00;99.90;;;;;;4809957;29;20160;-76
2023/10/10 14:23:37;;;;;;;20.02;17.88;;;21.00;99.90;;;;;;4806424;29;20043;-76
2023/10/10 14:26:12;;;;;;;21.25;18.33;;;21.00;99.90;;;;;;4822425;29;20080;-76
2023/10/10 14:28:39;;;;;;;21.60;18.17;;;20.90;99.90;;;;;;4808740;29;20371;-76
2023/10/10 14:31:05;;;;;;;24.42;18.70;;;20.90;99.90;;;;;;4807809;29;20085;-76
2023/10/10 14:33:30;;;;;;;20.52;17.80;;;20.90;99.90;;;;;;4793168;29;20074;-76
2023/10/10 14:35:56;;;;;;;22.27;17.63;;;20.90;99.90;;;;;;4820724;29;20085;-76
2023/10/10 14:38:21;;;;;;;19.85;17.70;;;20.80;99.90;;;;;;4815988;29;20102;-76
2023/10/10 14:40:47;;;;;;;23.65;19.15;;;20.70;99.90;;;;;;4838145;23;20413;-79
2023/10/10 14:43:13;;;;;;;21.75;19.55;;;20.70;99.90;;;;;;4821330;29;20043;-79
2023/10/10 14:45:43;;;;;;;25.10;20.50;;;20.60;99.90;;;;;;4816023;29;20034;-79
2023/10/10 14:48:18;;;;;;;22.45;19.75;;;20.50;99.90;;;;;;4829611;29;20042;-80
2023/10/10 14:50:45;;;;;;;24.33;18.67;;;20.50;99.90;;;;;;4812941;29;20052;-80
2023/10/10 14:53:10;;;;;;;22.02;19.08;;;20.40;99.90;;;;;;4790935;29;20509;-80
2023/10/10 14:55:40;;;;;;;23.30;19.65;;;20.40;99.90;;;;;;4816500;29;20138;-81
2023/10/10 14:58:10;;;;;;;21.10;17.40;;;20.40;99.90;;;;;;4809336;29;20046;-82
2023/10/10 15:00:44;;;;;;;20.45;18.27;;;20.40;99.90;;;;;;4807871;29;20183;-81
2023/10/10 15:03:13;;;;;;;21.00;17.92;;;20.30;99.90;;;;;;4813558;29;20168;-80
2023/10/10 15:05:51;;;;;;;19.33;17.08;;;20.30;99.90;;;;;;4808104;29;20053;-81
2023/10/10 15:08:22;;;;;;;19.50;17.48;;;20.30;99.90;;;;;;4812498;29;20098;-82
2023/10/10 15:10:53;;;;;;;18.40;16.40;;;20.20;99.90;;;;;;4807349;29;20181;-81
2023/10/10 15:13:19;;;;;;;25.50;18.20;;;20.20;99.90;;;;;;4809358;29;20075;-81
2023/10/10 15:15:45;;;;;;;18.02;16.25;;;20.20;99.90;;;;;;4801829;29;20111;-81
2023/10/10 15:18:18;;;;;;;20.85;16.98;;;20.20;99.90;;;;;;4823935;29;20044;-81
2023/10/10 15:20:48;;;;;;;18.23;16.23;;;20.10;99.90;;;;;;4823563;29;20517;-81
2023/10/10 15:23:20;;;;;;;18.40;16.23;;;20.10;99.90;;;;;;4793861;29;20039;-81
2023/10/10 15:25:52;;;;;;;16.73;15.02;;;20.10;99.90;;;;;;4808685;29;20121;-80
2023/10/10 15:28:18;;;;;;;16.35;14.60;;;20.00;99.90;;;;;;4823814;29;20047;-79
2023/10/10 15:30:44;;;;;;;18.95;16.42;;;20.00;99.90;;;;;;4814338;29;20481;-79
2023/10/10 15:33:10;;;;;;;17.45;15.70;;;19.90;99.90;;;;;;4807185;29;20051;-80
2023/10/10 15:35:39;;;;;;;21.02;15.82;;;19.90;99.90;;;;;;4828184;29;20194;-80
2023/10/10 15:38:09;;;;;;;17.40;15.68;;;19.90;99.90;;;;;;4807192;29;20050;-81
2023/10/10 15:40:39;;;;;;;21.15;16.75;;;19.80;99.90;;;;;;4806278;29;20119;-80
2023/10/10 15:43:05;;;;;;;18.25;16.35;;;19.80;99.90;;;;;;4806820;29;20061;-79
2023/10/10 15:45:37;;;;;;;19.58;16.85;;;19.70;99.90;;;;;;4810590;29;20042;-80
2023/10/10 15:48:03;;;;;;;20.38;17.25;;;19.70;99.90;;;;;;4790825;29;20122;-80
2023/10/10 15:50:31;;;;;;;21.50;18.83;;;19.60;99.90;;;;;;4792483;29;20176;-80
2023/10/10 15:52:57;;;;;;;21.10;17.88;;;19.60;99.90;;;;;;4803663;29;20054;-80
2023/10/10 15:55:25;;;;;;;20.23;16.75;;;19.60;99.90;;;;;;4809266;29;20130;-80
2023/10/10 15:57:54;;;;;;;20.73;18.33;;;19.50;99.90;;;;;;4809865;29;20439;-81
2023/10/10 16:00:43;;;;;;;20.33;18.33;;;19.40;99.90;;;;;;4815301;29;20038;-80
2023/10/10 16:03:07;;;;;;;20.98;18.55;;;19.40;99.90;;;;;;4815161;29;20061;-80
2023/10/10 16:05:39;;;;;;;20.80;18.73;;;19.30;99.90;;;;;;4808033;29;20038;-80
2023/10/10 16:08:05;;;;;;;25.85;17.10;;;19.30;99.90;;;;;;4808188;29;20125;-80
2023/10/10 16:10:31;;;;;;;21.40;19.02;;;19.20;99.90;;;;;;4807901;29;20134;-80
2023/10/10 16:12:56;;;;;;;20.90;18.75;;;19.20;99.90;;;;;;4808288;29;20042;-80
2023/10/10 16:15:22;;;;;;;21.30;19.08;;;19.10;99.90;;;;;;4806510;29;20042;-81
2023/10/10 16:17:54;;;;;;;21.02;18.83;;;19.00;99.90;;;;;;4815013;29;20046;-81
2023/10/10 16:20:23;;;;;;;21.88;17.80;;;18.80;99.90;;;;;;4823793;29;20126;-81
2023/10/10 16:22:49;;;;;;;21.05;18.13;;;18.80;99.90;;;;;;4826019;29;20042;-80
2023/10/10 16:25:18;;;;;;;22.60;19.35;;;18.70;99.90;;;;;;4817543;29;20058;-80
2023/10/10 16:27:43;;;;;;;22.27;19.92;;;18.70;99.90;;;;;;4808534;29;20081;-80
2023/10/10 16:30:10;;;;;;;21.35;19.17;;;18.60;99.90;;;;;;4814329;29;20483;-80
2023/10/10 16:32:37;;;;;;;23.75;20.23;;;18.50;99.90;;;;;;4817616;29;20085;-80
2023/10/10 16:35:06;;;;;;;23.55;21.02;;;18.40;99.90;;;;;;4820384;29;20113;-80
2023/10/10 16:37:36;;;;;;;23.88;20.40;;;18.30;99.90;;;;;;4812841;29;20408;-80
2023/10/10 16:40:08;;;;;;;21.08;18.23;;;18.20;99.90;;;;;;4818021;29;20041;-81
2023/10/10 16:42:33;;;;;;;22.23;19.67;;;18.20;99.90;;;;;;4810555;29;20057;-81
2023/10/10 16:44:59;;;;;;;21.80;19.33;;;18.00;99.90;;;;;;4825877;29;20045;-81
2023/10/10 16:47:25;;;;;;;21.17;19.13;;;18.00;99.90;;;;;;4821123;29;20420;-80
2023/10/10 16:49:51;;;;;;;22.05;19.75;;;17.90;99.90;;;;;;4813584;29;20094;-80
2023/10/10 16:52:17;;;;;;;21.45;19.27;;;17.90;99.90;;;;;;4814786;29;20057;-80
2023/10/10 16:54:50;;;;;;;21.95;19.63;;;17.80;99.90;;;;;;4792354;29;20057;-80
2023/10/10 16:57:16;;;;;;;22.17;19.23;;;17.70;99.90;;;;;;4807776;29;20058;-80
2023/10/10 16:59:42;;;;;;;21.75;19.45;;;17.70;99.90;;;;;;4807644;29;20390;-80
2023/10/10 17:02:08;;;;;;;21.70;18.92;;;17.60;99.90;;;;;;4813320;29;20130;-80
2023/10/10 17:04:34;;;;;;;23.42;20.92;;;17.60;99.90;;;;;;4815223;29;20302;-81
2023/10/10 17:06:59;;;;;;;25.48;19.90;;;17.40;99.90;;;;;;4807489;29;20039;-81